Time;durP1;ratioP1;P1;durP2;ratioP2;P2;SDS_P1;SDS_P2;PMS_P1;PMS_P2;Temp;Humidity;BMP_temperature;BMP_pressure;BME280_temperature;BME280_humidity;BME280_pressure;Samples;Min_cycle;Max_cycle;Signal;HPM_P1;HPM_P2
2022/12/07 00:01:22;;;;;;;6.97;6.27;;;;;;;5.27;90.82;98799.72;4987961;28;103572;-70
2022/12/07 00:03:57;;;;;;;7.90;6.27;;;;;;;5.22;91.33;98799.91;4971745;28;103264;-70
2022/12/07 00:06:25;;;;;;;7.23;6.50;;;;;;;5.46;90.51;98794.41;4976975;28;102780;-69
2022/12/07 00:08:54;;;;;;;7.40;6.60;;;;;;;5.39;89.96;98804.31;4966819;28;103608;-70
2022/12/07 00:11:25;;;;;;;7.60;6.70;;;;;;;5.41;89.55;98801.63;4966627;28;103239;-69
2022/12/07 00:13:54;;;;;;;6.87;5.87;;;;;;;5.38;90.20;98796.56;4961851;28;103362;-69
2022/12/07 00:16:25;;;;;;;8.30;7.20;;;;;;;5.39;90.22;98798.25;4970602;28;102555;-70
2022/12/07 00:18:56;;;;;;;7.07;5.97;;;;;;;5.57;90.33;98794.69;4984285;28;103232;-69
2022/12/07 00:21:26;;;;;;;6.83;5.37;;;;;;;5.50;89.78;98803.81;4970271;28;103281;-70
2022/12/07 00:23:56;;;;;;;7.57;6.20;;;;;;;5.54;89.70;98802.72;4976430;28;103237;-69
2022/12/07 00:26:26;;;;;;;8.77;7.13;;;;;;;5.46;89.49;98799.63;4964945;28;102638;-69
2022/12/07 00:28:56;;;;;;;8.43;7.47;;;;;;;5.35;89.65;98799.31;4961406;28;103550;-69
2022/12/07 00:31:26;;;;;;;8.27;6.83;;;;;;;5.37;90.01;98795.69;4969636;28;104168;-69
2022/12/07 00:33:54;;;;;;;7.13;6.33;;;;;;;5.45;89.86;98795.31;4961017;28;102697;-69
2022/12/07 00:36:24;;;;;;;7.73;5.83;;;;;;;5.54;89.90;98797.47;4961678;28;102788;-69
2022/12/07 00:38:58;;;;;;;6.13;5.40;;;;;;;5.61;89.38;98791.88;4966136;28;103979;-69
2022/12/07 00:41:27;;;;;;;7.77;6.23;;;;;;;5.50;89.59;98795.94;4964983;28;103296;-69
2022/12/07 00:43:55;;;;;;;5.77;5.07;;;;;;;5.64;89.46;98785.63;4966839;28;103350;-69
2022/12/07 00:46:24;;;;;;;7.20;6.50;;;;;;;5.62;88.82;98795.31;4977094;28;102806;-69
2022/12/07 00:48:53;;;;;;;6.90;5.60;;;;;;;5.60;89.06;98790.16;4963933;28;103483;-69
2022/12/07 00:51:23;;;;;;;6.40;5.67;;;;;;;5.58;88.91;98783.31;4957966;28;103299;-69
2022/12/07 00:53:51;;;;;;;7.07;6.37;;;;;;;5.51;88.68;98792.38;4950376;28;103341;-70
2022/12/07 00:56:22;;;;;;;6.83;5.13;;;;;;;5.59;88.26;98793.69;4967283;28;102533;-70
2022/12/07 00:58:51;;;;;;;6.10;5.50;;;;;;;5.61;88.14;98798.88;4965742;28;102595;-69
2022/12/07 01:01:20;;;;;;;6.03;5.40;;;;;;;5.60;87.92;98798.03;4955117;28;103051;-70
2022/12/07 01:03:48;;;;;;;7.03;6.23;;;;;;;5.62;87.30;98804.03;4967651;28;104269;-69
2022/12/07 01:06:17;;;;;;;7.57;6.17;;;;;;;5.63;87.31;98802.25;4962021;28;103507;-69
2022/12/07 01:08:45;;;;;;;6.70;5.30;;;;;;;5.60;87.66;98802.41;4957149;28;103970;-70
2022/12/07 01:11:16;;;;;;;6.80;5.60;;;;;;;5.64;87.34;98799.53;4954871;28;104077;-70
2022/12/07 01:13:46;;;;;;;7.97;6.60;;;;;;;5.54;86.85;98797.47;4960579;28;102994;-68
2022/12/07 01:16:16;;;;;;;8.37;6.83;;;;;;;5.54;86.56;98792.22;4967862;28;103063;-69
2022/12/07 01:18:47;;;;;;;8.70;7.37;;;;;;;5.36;87.58;98808.88;4967083;28;102707;-69
2022/12/07 01:21:18;;;;;;;7.40;6.20;;;;;;;5.49;87.60;98808.19;4955953;28;104020;-69
2022/12/07 01:23:45;;;;;;;7.43;5.93;;;;;;;5.52;87.05;98800.19;4964205;28;103254;-69
2022/12/07 01:26:16;;;;;;;7.27;6.53;;;;;;;5.52;86.70;98801.94;4958223;28;102641;-69
2022/12/07 01:28:46;;;;;;;8.03;6.30;;;;;;;5.55;86.63;98800.03;4964056;28;103942;-69
2022/12/07 01:31:17;;;;;;;8.60;7.03;;;;;;;5.38;86.75;98801.78;4963447;28;104267;-69
2022/12/07 01:33:47;;;;;;;11.27;7.90;;;;;;;5.42;86.42;98803.34;4979751;28;104371;-70
2022/12/07 01:36:16;;;;;;;7.17;5.93;;;;;;;5.51;86.76;98808.09;4973734;28;102626;-70
2022/12/07 01:38:45;;;;;;;7.87;6.63;;;;;;;5.50;86.34;98812.50;4986863;28;104575;-70
2022/12/07 01:41:14;;;;;;;7.27;5.60;;;;;;;5.56;86.20;98811.34;4983104;28;104127;-70
2022/12/07 01:44:12;;;;;;;7.20;5.73;;;;;;;5.56;85.94;98811.34;4975804;28;104094;-70
2022/12/07 01:46:41;;;;;;;7.27;5.53;;;;;;;5.59;85.78;98811.19;4966833;28;102910;-69
2022/12/07 01:49:15;;;;;;;7.27;6.20;;;;;;;5.54;85.48;98807.97;4963336;28;105959;-70
2022/12/07 01:51:46;;;;;;;8.77;6.93;;;;;;;5.55;86.05;98807.91;4963013;28;103276;-70
2022/12/07 01:54:17;;;;;;;6.97;6.23;;;;;;;5.47;85.75;98809.19;4967454;28;103107;-71
2022/12/07 01:56:50;;;;;;;7.03;5.97;;;;;;;5.53;86.39;98808.91;4963282;28;102620;-70
2022/12/07 01:59:24;;;;;;;9.37;6.90;;;;;;;5.41;86.32;98806.88;4970305;28;102654;-69
2022/12/07 02:01:52;;;;;;;7.40;5.77;;;;;;;5.38;87.02;98812.28;4961978;28;103271;-69
2022/12/07 02:04:20;;;;;;;8.67;7.40;;;;;;;5.42;86.97;98804.16;4963242;28;103151;-70
2022/12/07 02:06:49;;;;;;;6.23;5.63;;;;;;;5.51;86.78;98810.72;4962301;28;102542;-69
2022/12/07 02:09:17;;;;;;;6.17;5.13;;;;;;;5.51;87.16;98813.34;4981947;28;102728;-69
2022/12/07 02:11:45;;;;;;;8.87;6.93;;;;;;;5.44;87.08;98801.50;4962431;28;103443;-70
2022/12/07 02:14:12;;;;;;;7.50;5.67;;;;;;;5.50;87.14;98806.44;4957132;28;103288;-69
2022/12/07 02:16:54;;;;;;;8.53;7.53;;;;;;;5.26;87.32;98808.47;4967156;28;102704;-69
2022/12/07 02:19:51;;;;;;;6.40;5.70;;;;;;;5.42;87.93;98808.59;4987779;28;103579;-70
2022/12/07 02:22:52;;;;;;;7.13;5.77;;;;;;;5.43;87.33;98802.41;4962194;28;104056;-69
2022/12/07 02:25:31;;;;;;;6.40;5.40;;;;;;;5.51;87.46;98808.09;4965013;28;103206;-70
2022/12/07 02:28:07;;;;;;;9.23;7.53;;;;;;;5.25;86.93;98797.16;4960915;28;106540;-69
2022/12/07 02:30:43;;;;;;;7.30;6.60;;;;;;;5.35;87.84;98796.69;4978211;28;102892;-70
2022/12/07 02:33:17;;;;;;;7.80;5.33;;;;;;;5.41;87.58;98796.41;4977035;28;102753;-69
2022/12/07 02:35:51;;;;;;;8.13;5.53;;;;;;;5.34;87.61;98792.38;4978996;28;104596;-70
2022/12/07 02:38:27;;;;;;;7.60;6.30;;;;;;;5.31;87.87;98779.44;4969877;28;103034;-70
2022/12/07 02:40:59;;;;;;;8.87;6.30;;;;;;;5.24;88.48;98778.91;4965531;28;104027;-69
2022/12/07 02:43:29;;;;;;;6.37;5.77;;;;;;;5.37;88.16;98773.88;4961495;28;103290;-69
2022/12/07 02:46:03;;;;;;;7.50;6.70;;;;;;;5.21;87.57;98779.06;4964689;28;103284;-69
2022/12/07 02:48:34;;;;;;;8.27;5.80;;;;;;;5.29;88.17;98776.91;4966885;28;102561;-69
2022/12/07 02:51:02;;;;;;;9.97;6.97;;;;;;;5.02;88.77;98779.13;4965029;28;103626;-70
2022/12/07 02:53:32;;;;;;;7.03;6.33;;;;;;;5.05;89.13;98776.31;4967126;28;104214;-69
2022/12/07 02:56:03;;;;;;;9.83;7.73;;;;;;;5.03;89.38;98775.56;4965564;28;103169;-69
2022/12/07 02:58:45;;;;;;;9.17;7.23;;;;;;;4.99;89.44;98770.56;4963297;28;102660;-69
2022/12/07 03:01:27;;;;;;;7.50;6.03;;;;;;;5.19;89.77;98768.63;4954043;28;103754;-69
2022/12/07 03:04:07;;;;;;;7.63;6.43;;;;;;;5.06;89.37;98774.56;4979423;28;103244;-70
2022/12/07 03:06:43;;;;;;;7.30;6.37;;;;;;;5.10;89.26;98770.88;4961688;28;103245;-69
2022/12/07 03:09:15;;;;;;;7.83;6.80;;;;;;;5.15;88.63;98774.09;4965961;28;102736;-69
2022/12/07 03:11:48;;;;;;;8.73;6.77;;;;;;;4.86;89.01;98765.03;4961200;28;102813;-69
2022/12/07 03:14:22;;;;;;;9.23;6.73;;;;;;;4.95;89.49;98766.38;4960962;28;103257;-70
2022/12/07 03:16:56;;;;;;;10.17;6.97;;;;;;;5.07;89.75;98769.25;4966904;28;103021;-69
2022/12/07 03:19:27;;;;;;;8.93;6.40;;;;;;;5.08;88.95;98763.09;4963349;28;102937;-70
2022/12/07 03:22:01;;;;;;;9.47;6.67;;;;;;;5.00;89.26;98770.47;4964258;28;103842;-70
2022/12/07 03:24:34;;;;;;;7.27;6.37;;;;;;;5.06;88.37;98764.94;4968829;28;104293;-69
2022/12/07 03:27:06;;;;;;;9.17;6.50;;;;;;;5.21;88.41;98758.94;4969645;28;103325;-70
2022/12/07 03:29:39;;;;;;;7.63;6.60;;;;;;;5.04;88.64;98756.31;4961151;28;102558;-69
2022/12/07 03:32:15;;;;;;;6.13;5.03;;;;;;;5.16;88.57;98750.47;4972049;28;103501;-69
2022/12/07 03:34:48;;;;;;;7.07;6.30;;;;;;;4.97;88.72;98754.91;4968145;28;103268;-69
2022/12/07 03:37:21;;;;;;;8.70;6.87;;;;;;;4.96;88.87;98752.38;4969169;28;104217;-69
2022/12/07 03:39:58;;;;;;;8.50;7.30;;;;;;;4.80;88.78;98752.25;4989432;28;102850;-69
2022/12/07 03:42:27;;;;;;;6.53;5.43;;;;;;;5.08;88.24;98757.03;4970422;28;103438;-69
2022/12/07 03:44:55;;;;;;;6.53;5.37;;;;;;;5.09;87.36;98753.47;4959492;28;103840;-69
2022/12/07 03:47:30;;;;;;;6.80;5.50;;;;;;;5.17;87.53;98760.00;4954607;28;103200;-69
2022/12/07 03:50:02;;;;;;;9.03;7.50;;;;;;;4.97;87.02;98754.91;4964373;28;102928;-69
2022/12/07 03:52:36;;;;;;;7.47;6.30;;;;;;;5.03;87.57;98757.22;4967423;28;103983;-70
2022/12/07 03:55:09;;;;;;;7.87;7.07;;;;;;;4.76;87.17;98757.72;4983598;28;104247;-69
2022/12/07 03:57:40;;;;;;;9.03;7.20;;;;;;;4.82;87.63;98754.81;4964905;28;103735;-70
2022/12/07 04:00:10;;;;;;;9.87;8.17;;;;;;;4.67;87.82;98751.16;4970809;28;103134;-69
2022/12/07 04:02:43;;;;;;;8.37;7.47;;;;;;;4.66;88.45;98755.53;4951051;28;102652;-69
2022/12/07 04:05:12;;;;;;;8.67;6.47;;;;;;;4.56;88.51;98743.81;4956603;28;104023;-69
2022/12/07 04:07:41;;;;;;;8.50;7.37;;;;;;;4.54;88.30;98755.28;4958635;28;104788;-69
2022/12/07 04:10:09;;;;;;;8.33;7.10;;;;;;;4.58;88.16;98747.19;4960388;28;102630;-69
2022/12/07 04:12:37;;;;;;;6.80;5.73;;;;;;;4.60;88.06;98741.91;4973029;28;104059;-69
2022/12/07 04:15:06;;;;;;;7.83;5.63;;;;;;;4.74;87.84;98736.88;4964288;28;104327;-69
2022/12/07 04:17:34;;;;;;;10.40;8.13;;;;;;;4.47;87.79;98720.69;4972683;28;103227;-69
2022/12/07 04:20:04;;;;;;;6.57;5.73;;;;;;;4.66;87.76;98718.03;4959365;28;102514;-69
2022/12/07 04:22:32;;;;;;;8.47;7.13;;;;;;;4.56;87.17;98722.03;4948133;28;105088;-69
2022/12/07 04:25:00;;;;;;;6.10;5.50;;;;;;;4.67;87.83;98724.97;4952624;28;103405;-70
2022/12/07 04:27:28;;;;;;;7.00;6.20;;;;;;;4.64;87.29;98719.88;4951608;28;103435;-75
2022/12/07 04:29:56;;;;;;;7.10;6.03;;;;;;;4.43;87.02;98719.16;4955463;28;102878;-73
2022/12/07 04:32:24;;;;;;;7.27;6.07;;;;;;;4.59;88.43;98720.13;4954751;28;103911;-74
2022/12/07 04:34:52;;;;;;;8.63;7.10;;;;;;;4.67;87.88;98719.75;4965924;28;104316;-74
2022/12/07 04:37:24;;;;;;;6.93;5.70;;;;;;;4.77;87.57;98707.94;4951980;28;103186;-73
2022/12/07 04:39:52;;;;;;;6.33;5.67;;;;;;;4.77;86.87;98700.09;4975929;28;102942;-72
2022/12/07 04:42:20;;;;;;;8.30;6.23;;;;;;;4.78;86.74;98700.91;4969551;28;103216;-73
2022/12/07 04:44:48;;;;;;;7.87;5.90;;;;;;;4.76;85.85;98681.81;4956878;28;103118;-72
2022/12/07 04:47:16;;;;;;;7.23;5.80;;;;;;;4.75;85.52;98691.44;4973976;28;104111;-72
2022/12/07 04:49:44;;;;;;;9.17;7.57;;;;;;;4.30;85.64;98693.63;4945507;28;102606;-74
2022/12/07 04:52:14;;;;;;;8.97;7.10;;;;;;;3.45;89.80;98702.78;4976761;28;104076;-74
2022/12/07 04:54:43;;;;;;;10.37;7.27;;;;;;;3.17;91.40;98712.72;4979157;28;104158;-75
2022/12/07 04:57:11;;;;;;;10.27;7.33;;;;;;;2.96;92.85;98724.88;4964289;28;103383;-74
2022/12/07 04:59:38;;;;;;;10.10;7.20;;;;;;;3.26;91.76;98720.13;4984457;28;102811;-74
2022/12/07 05:02:12;;;;;;;8.27;6.87;;;;;;;3.55;90.80;98713.66;4957586;28;102792;-75
2022/12/07 05:04:40;;;;;;;8.77;7.17;;;;;;;3.50;89.73;98724.31;4962399;28;102988;-75
2022/12/07 05:07:08;;;;;;;10.13;7.43;;;;;;;3.28;90.18;98726.16;4968682;28;103202;-76
2022/12/07 05:09:35;;;;;;;7.77;6.73;;;;;;;3.36;90.14;98730.13;4962676;28;102583;-74
2022/12/07 05:12:05;;;;;;;8.07;6.73;;;;;;;3.50;90.31;98732.16;4963519;28;102584;-74
2022/12/07 05:14:33;;;;;;;10.00;7.70;;;;;;;3.55;89.18;98730.19;4961803;28;103317;-74
2022/12/07 05:17:00;;;;;;;8.77;6.97;;;;;;;3.72;88.79;98734.66;4961092;28;103230;-74
2022/12/07 05:19:28;;;;;;;7.93;6.87;;;;;;;3.42;90.11;98734.25;4960197;28;102695;-74
2022/12/07 05:21:56;;;;;;;8.73;7.27;;;;;;;3.20;91.46;98743.91;4963585;28;102724;-74
2022/12/07 05:24:26;;;;;;;10.10;7.30;;;;;;;3.46;90.48;98746.25;4956337;28;103363;-74
2022/12/07 05:26:54;;;;;;;10.83;7.80;;;;;;;3.53;89.41;98747.69;4984583;28;104847;-69
2022/12/07 05:29:24;;;;;;;9.87;7.93;;;;;;;3.57;89.07;98737.94;4983808;28;102710;-69
2022/12/07 05:31:51;;;;;;;9.83;7.27;;;;;;;3.26;90.66;98739.25;4969343;28;103458;-69
2022/12/07 05:34:20;;;;;;;9.60;7.77;;;;;;;3.35;90.86;98738.88;4972191;28;106521;-70
2022/12/07 05:36:47;;;;;;;8.00;6.80;;;;;;;3.62;90.09;98742.03;4971093;28;103156;-70
2022/12/07 05:39:15;;;;;;;8.47;6.23;;;;;;;3.81;89.04;98737.72;4975367;28;102534;-70
2022/12/07 05:44:32;;;;;;;6.90;5.63;;;;;;;4.04;87.74;98740.13;4968810;28;103358;-70
2022/12/07 05:47:00;;;;;;;8.23;6.90;;;;;;;4.12;87.74;98746.81;4960158;28;103270;-70
2022/12/07 05:49:30;;;;;;;8.47;6.30;;;;;;;4.17;86.59;98739.59;4949251;28;102700;-70
2022/12/07 05:51:58;;;;;;;8.13;5.93;;;;;;;4.19;86.86;98742.97;4966075;28;103546;-70
2022/12/07 05:54:26;;;;;;;8.07;6.10;;;;;;;4.21;87.13;98736.75;4961557;28;104362;-70
2022/12/07 05:56:54;;;;;;;6.63;5.13;;;;;;;4.27;87.00;98740.84;4961094;28;103289;-70
2022/12/07 05:59:24;;;;;;;8.80;6.67;;;;;;;4.28;87.06;98737.31;4965727;28;102885;-70
2022/12/07 06:01:54;;;;;;;11.87;7.77;;;;;;;3.82;87.79;98734.19;4960361;28;102715;-70
2022/12/07 06:04:26;;;;;;;10.03;8.17;;;;;;;3.86;88.75;98740.97;4958028;28;103759;-71
2022/12/07 06:06:54;;;;;;;8.40;7.60;;;;;;;3.58;89.46;98750.09;4958323;28;103237;-70
2022/12/07 06:09:24;;;;;;;9.97;8.10;;;;;;;3.29;92.10;98759.16;4958519;28;102689;-69
2022/12/07 06:14:41;;;;;;;8.07;6.13;;;;;;;3.79;91.66;98750.00;4956551;28;102980;-68
2022/12/07 06:17:11;;;;;;;9.77;7.67;;;;;;;3.96;90.92;98742.25;4938657;28;104306;-68
2022/12/07 06:19:40;;;;;;;8.70;6.87;;;;;;;4.14;89.82;98744.97;4947847;28;104033;-69
2022/12/07 06:22:08;;;;;;;7.87;6.23;;;;;;;4.23;89.17;98741.94;4955787;28;102911;-70
2022/12/07 06:24:36;;;;;;;10.30;6.93;;;;;;;4.28;89.37;98745.16;4953717;28;103252;-70
2022/12/07 06:27:05;;;;;;;9.43;7.27;;;;;;;4.19;88.54;98742.97;4947396;28;103240;-72
2022/12/07 06:29:33;;;;;;;8.87;7.00;;;;;;;4.23;88.79;98739.31;4955968;28;102723;-68
2022/12/07 06:32:01;;;;;;;10.40;7.33;;;;;;;4.15;88.83;98736.22;4960082;28;104087;-68
2022/12/07 06:34:31;;;;;;;9.13;6.73;;;;;;;4.09;89.13;98727.72;4962439;28;104163;-70
2022/12/07 06:37:01;;;;;;;8.10;6.17;;;;;;;4.13;89.29;98732.81;4959912;28;103302;-70
2022/12/07 06:39:29;;;;;;;9.73;6.50;;;;;;;4.02;89.09;98728.06;4961024;28;102897;-70
2022/12/07 06:41:58;;;;;;;11.00;8.03;;;;;;;4.02;88.24;98736.75;4956256;28;103907;-70
2022/12/07 06:44:26;;;;;;;12.33;7.83;;;;;;;3.52;89.44;98751.22;4951029;28;103900;-71
2022/12/07 06:46:54;;;;;;;10.33;8.00;;;;;;;3.64;89.00;98760.28;4953743;28;103298;-68
2022/12/07 06:49:40;;;;;;;9.80;7.57;;;;;;;3.74;88.54;98757.19;4957008;28;104120;-70
2022/12/07 06:52:10;;;;;;;8.73;6.23;;;;;;;3.99;88.19;98747.34;4958973;28;102907;-70
2022/12/07 06:54:38;;;;;;;12.87;9.20;;;;;;;4.06;87.63;98743.56;4975566;28;104188;-70
2022/12/07 06:57:06;;;;;;;7.73;6.57;;;;;;;4.09;85.58;98742.56;4959176;28;103305;-70
2022/12/07 06:59:36;;;;;;;9.27;6.90;;;;;;;4.00;85.45;98748.19;4954269;28;102578;-70
2022/12/07 07:02:04;;;;;;;7.53;5.93;;;;;;;4.04;86.25;98747.97;4955047;28;104160;-70
2022/12/07 07:04:32;;;;;;;8.63;6.40;;;;;;;3.97;87.30;98746.56;4953322;28;103218;-69
2022/12/07 07:07:01;;;;;;;7.43;6.30;;;;;;;3.96;86.29;98750.09;4949774;28;104017;-70
2022/12/07 07:09:29;;;;;;;8.47;6.17;;;;;;;3.99;85.37;98749.09;4973351;28;103205;-70
2022/12/07 07:11:57;;;;;;;6.07;5.17;;;;;;;4.20;85.21;98749.91;4975945;28;104138;-70
2022/12/07 07:14:25;;;;;;;5.73;5.13;;;;;;;4.25;84.83;98750.53;4971636;28;103236;-70
2022/12/07 07:16:53;;;;;;;6.83;5.83;;;;;;;4.33;84.40;98745.81;4954580;28;104094;-69
2022/12/07 07:19:21;;;;;;;7.33;5.73;;;;;;;4.30;84.28;98753.78;4953082;28;103083;-70
2022/12/07 07:21:49;;;;;;;6.23;4.73;;;;;;;4.35;84.38;98757.06;4962657;28;102612;-70
2022/12/07 07:24:19;;;;;;;9.10;6.83;;;;;;;4.26;83.88;98760.94;4954514;28;103645;-70
2022/12/07 07:26:47;;;;;;;6.90;5.83;;;;;;;4.39;84.48;98763.84;4960158;28;103210;-69
2022/12/07 07:29:17;;;;;;;8.77;7.63;;;;;;;4.04;84.57;98765.47;4945572;28;103267;-70
2022/12/07 07:31:45;;;;;;;7.60;5.93;;;;;;;4.33;84.61;98771.97;4946809;28;103679;-70
2022/12/07 07:34:13;;;;;;;7.33;5.93;;;;;;;4.48;84.58;98766.88;4962882;28;104233;-70
2022/12/07 07:36:41;;;;;;;7.80;6.43;;;;;;;4.32;84.24;98759.81;4976539;28;103417;-70
2022/12/07 07:39:12;;;;;;;9.80;6.30;;;;;;;4.30;84.33;98766.88;4947759;28;102668;-69
2022/12/07 07:41:41;;;;;;;6.30;5.10;;;;;;;4.35;82.84;98767.53;4938848;28;102745;-70
2022/12/07 07:44:14;;;;;;;6.27;5.30;;;;;;;4.38;81.07;98764.78;4975722;28;105577;-70
2022/12/07 07:46:42;;;;;;;6.93;4.93;;;;;;;4.40;79.69;98773.38;4959411;28;103235;-70
2022/12/07 07:49:10;;;;;;;6.93;5.27;;;;;;;4.49;79.82;98770.34;4948931;28;102561;-69
2022/12/07 07:51:38;;;;;;;5.20;4.20;;;;;;;4.59;81.16;98774.22;4956461;28;103951;-70
2022/12/07 07:54:06;;;;;;;6.07;4.20;;;;;;;4.62;80.54;98774.09;4965915;28;104114;-70
2022/12/07 07:56:34;;;;;;;7.03;5.27;;;;;;;4.53;81.27;98774.50;4967102;28;103110;-70
2022/12/07 07:59:03;;;;;;;5.47;4.07;;;;;;;4.75;80.85;98776.94;4952431;28;103208;-70
2022/12/07 08:01:31;;;;;;;4.53;4.03;;;;;;;4.86;79.87;98775.53;4941466;28;104303;-69
2022/12/07 08:03:59;;;;;;;5.77;4.60;;;;;;;4.72;77.77;98775.31;4970751;28;104383;-69
2022/12/07 08:06:27;;;;;;;5.40;4.00;;;;;;;4.83;78.21;98778.28;4949709;28;103773;-69
2022/12/07 08:08:59;;;;;;;5.00;4.37;;;;;;;4.98;78.28;98776.69;4971764;28;102709;-70
2022/12/07 08:11:27;;;;;;;4.67;3.70;;;;;;;5.01;79.07;98789.66;4947652;28;104841;-70
2022/12/07 08:13:55;;;;;;;6.00;4.60;;;;;;;4.84;78.03;98774.75;4956470;28;103349;-70
2022/12/07 08:16:24;;;;;;;6.30;4.47;;;;;;;5.00;77.99;98780.94;4956111;28;103287;-69
2022/12/07 08:18:55;;;;;;;5.30;4.27;;;;;;;5.09;77.13;98775.25;4965851;28;102711;-69
2022/12/07 08:21:23;;;;;;;6.63;4.30;;;;;;;5.22;77.82;98776.34;4955847;28;103347;-70
2022/12/07 08:23:50;;;;;;;6.23;4.70;;;;;;;5.20;77.35;98779.97;4957806;28;104172;-70
2022/12/07 08:26:18;;;;;;;5.20;3.90;;;;;;;5.36;78.68;98778.28;4966176;28;104157;-69
2022/12/07 08:28:46;;;;;;;4.97;4.30;;;;;;;5.40;78.74;98784.22;4944654;28;102751;-69
2022/12/07 08:31:16;;;;;;;5.53;4.43;;;;;;;5.32;76.27;98787.22;4956760;28;103058;-70
2022/12/07 08:33:46;;;;;;;4.37;3.60;;;;;;;5.36;75.97;98788.75;4952569;28;103328;-70
2022/12/07 08:36:15;;;;;;;6.17;5.10;;;;;;;5.43;75.29;98799.78;4957941;28;103250;-70
2022/12/07 08:38:42;;;;;;;5.17;4.50;;;;;;;5.59;75.31;98798.09;4952505;28;102960;-71
2022/12/07 08:41:30;;;;;;;6.20;4.77;;;;;;;5.65;75.46;98795.16;4970123;28;103878;-69
2022/12/07 08:43:58;;;;;;;6.20;4.97;;;;;;;5.58;74.86;98788.53;4953228;28;103388;-70
2022/12/07 08:46:32;;;;;;;4.17;3.20;;;;;;;5.74;75.09;98794.69;4954873;28;103317;-70
2022/12/07 08:49:06;;;;;;;5.60;4.57;;;;;;;5.71;74.38;98784.38;4953393;28;104206;-69
2022/12/07 08:51:37;;;;;;;6.10;4.73;;;;;;;5.56;73.27;98788.59;4950027;28;103806;-71
2022/12/07 08:54:08;;;;;;;8.17;5.20;;;;;;;5.73;74.39;98788.59;4954056;28;103688;-70
2022/12/07 08:56:36;;;;;;;5.87;4.20;;;;;;;5.74;73.48;98784.22;4951915;28;103309;-69
2022/12/07 08:59:05;;;;;;;6.07;4.23;;;;;;;5.69;73.92;98786.22;4969214;28;103052;-69
2022/12/07 09:01:33;;;;;;;5.13;3.87;;;;;;;5.89;74.74;98791.31;4947567;28;104018;-70
2022/12/07 09:04:01;;;;;;;7.03;3.83;;;;;;;6.07;74.11;98792.13;4968058;28;104075;-70
2022/12/07 09:06:30;;;;;;;4.97;4.23;;;;;;;5.92;73.63;98788.53;4946879;28;103199;-69
2022/12/07 09:09:02;;;;;;;5.33;4.20;;;;;;;6.04;73.79;98787.88;4962240;28;102824;-69
2022/12/07 09:11:30;;;;;;;7.90;5.40;;;;;;;6.04;73.19;98785.25;4969276;28;103033;-69
2022/12/07 09:13:58;;;;;;;7.23;4.60;;;;;;;5.77;72.34;98784.06;4960941;28;103419;-69
2022/12/07 09:16:26;;;;;;;6.20;4.53;;;;;;;5.62;72.00;98787.44;4941159;28;103226;-69
2022/12/07 09:18:54;;;;;;;4.83;4.10;;;;;;;5.70;72.36;98787.91;4950813;28;102691;-69
2022/12/07 09:21:22;;;;;;;5.73;4.57;;;;;;;5.77;71.34;98784.06;4950522;28;103791;-70
2022/12/07 09:23:51;;;;;;;6.13;4.77;;;;;;;5.95;71.83;98783.13;4955268;28;102975;-70
2022/12/07 09:26:19;;;;;;;6.33;4.30;;;;;;;5.89;70.52;98783.47;4956129;28;103577;-70
2022/12/07 09:28:46;;;;;;;7.03;3.90;;;;;;;6.19;71.76;98780.97;4967549;28;103018;-70
2022/12/07 09:31:14;;;;;;;5.07;3.50;;;;;;;6.39;71.50;98783.41;4947030;28;102879;-69
2022/12/07 09:33:55;;;;;;;6.17;4.23;;;;;;;6.55;70.79;98781.63;4963557;28;103311;-69
2022/12/07 09:36:22;;;;;;;4.20;3.63;;;;;;;6.32;70.87;98788.13;4948498;28;103169;-70
2022/12/07 09:38:52;;;;;;;6.10;3.60;;;;;;;6.27;72.15;98781.41;4953078;28;102651;-70
2022/12/07 09:41:21;;;;;;;7.53;4.60;;;;;;;6.26;71.52;98780.56;4946936;28;102947;-69
2022/12/07 09:43:49;;;;;;;4.40;3.80;;;;;;;6.26;72.46;98777.94;4970354;28;103976;-70
2022/12/07 09:46:20;;;;;;;4.80;3.30;;;;;;;6.26;72.87;98785.81;4954370;28;104248;-69
2022/12/07 09:48:52;;;;;;;4.03;3.20;;;;;;;6.49;71.87;98781.09;4960889;28;102634;-69
2022/12/07 09:51:21;;;;;;;3.90;3.27;;;;;;;6.54;71.39;98771.22;4954496;28;102613;-70
2022/12/07 09:53:57;;;;;;;4.60;3.30;;;;;;;6.74;71.01;98773.56;4967746;28;103225;-69
2022/12/07 09:56:25;;;;;;;6.20;3.57;;;;;;;6.40;69.85;98769.31;4963035;28;103247;-70
2022/12/07 09:59:01;;;;;;;4.60;3.63;;;;;;;6.68;71.34;98763.44;4948412;28;102611;-70
2022/12/07 10:01:31;;;;;;;5.67;3.40;;;;;;;6.76;71.06;98756.81;4953659;28;102693;-70
2022/12/07 10:04:07;;;;;;;4.60;3.87;;;;;;;6.71;71.29;98758.00;4960205;28;103800;-70
2022/12/07 10:06:35;;;;;;;6.57;4.80;;;;;;;6.46;71.13;98760.31;4963764;28;103314;-70
2022/12/07 10:09:12;;;;;;;3.80;3.37;;;;;;;6.69;70.71;98744.09;4964533;28;102731;-71
2022/12/07 10:12:03;;;;;;;4.37;2.57;;;;;;;6.89;70.72;98752.56;4960735;28;103898;-71
2022/12/07 10:14:33;;;;;;;4.27;3.40;;;;;;;6.74;71.43;98747.31;4963169;28;103974;-71
2022/12/07 10:17:38;;;;;;;4.30;3.37;;;;;;;6.71;71.24;98747.50;4955210;28;103283;-67
2022/12/07 10:20:15;;;;;;;2.80;2.43;;;;;;;6.86;70.95;98751.88;4951935;28;102647;-68
2022/12/07 10:22:56;;;;;;;5.60;3.27;;;;;;;6.66;70.50;98744.28;4961137;28;102670;-68
2022/12/07 10:25:28;;;;;;;4.53;3.67;;;;;;;6.87;71.63;98740.47;4951798;28;104507;-67
2022/12/07 10:28:01;;;;;;;3.73;3.30;;;;;;;6.69;72.52;98741.47;4965783;28;103249;-68
2022/12/07 10:30:30;;;;;;;3.13;2.73;;;;;;;6.74;72.88;98742.06;4974221;28;102833;-67
2022/12/07 10:32:58;;;;;;;3.77;3.20;;;;;;;6.76;72.84;98734.97;4968480;28;103966;-67
2022/12/07 10:35:29;;;;;;;6.30;4.40;;;;;;;6.58;72.93;98736.84;4961445;28;103251;-66
2022/12/07 10:38:00;;;;;;;4.60;3.70;;;;;;;6.68;72.56;98739.81;4958647;28;103231;-67
2022/12/07 10:40:33;;;;;;;4.00;3.20;;;;;;;6.85;72.50;98744.94;4975776;28;102763;-67
2022/12/07 10:43:16;;;;;;;3.97;3.40;;;;;;;6.79;72.25;98729.53;4955663;28;104007;-68
2022/12/07 10:46:15;;;;;;;2.83;2.50;;;;;;;6.79;73.17;98740.03;4955594;28;104201;-68
2022/12/07 10:48:52;;;;;;;3.57;2.90;;;;;;;6.72;73.69;98728.19;4966403;28;103224;-69
2022/12/07 10:51:26;;;;;;;4.53;3.73;;;;;;;6.75;73.90;98728.84;4955787;28;102581;-69
2022/12/07 10:54:11;;;;;;;4.10;3.30;;;;;;;6.68;74.05;98730.13;4971273;28;102853;-70
2022/12/07 10:57:06;;;;;;;3.57;2.80;;;;;;;6.88;74.83;98719.34;4977425;28;103571;-69
2022/12/07 10:59:48;;;;;;;3.20;2.23;;;;;;;7.08;74.24;98717.34;4965513;28;103266;-68
2022/12/07 11:02:31;;;;;;;5.37;3.33;;;;;;;6.82;75.23;98719.69;4953305;28;103138;-68
2022/12/07 11:05:06;;;;;;;3.87;2.70;;;;;;;6.44;77.00;98713.13;4974934;28;103706;-67
2022/12/07 11:07:44;;;;;;;2.90;2.53;;;;;;;6.35;77.64;98706.59;4949919;28;103282;-65
2022/12/07 11:10:19;;;;;;;2.90;2.60;;;;;;;6.33;77.73;98712.88;4951023;28;104119;-66
2022/12/07 11:13:12;;;;;;;3.10;2.50;;;;;;;6.02;78.32;98711.06;4976772;28;102713;-68
2022/12/07 11:15:56;;;;;;;2.40;2.20;;;;;;;6.20;78.77;98706.63;4958016;28;103442;-67
2022/12/07 11:18:28;;;;;;;3.17;2.53;;;;;;;6.09;79.90;98706.34;4963339;28;103949;-66
2022/12/07 11:21:05;;;;;;;2.80;2.50;;;;;;;6.07;79.56;98705.56;4950534;28;103221;-69
2022/12/07 11:23:46;;;;;;;3.30;2.63;;;;;;;6.11;79.99;98705.34;4964367;28;103184;-69
2022/12/07 11:26:35;;;;;;;3.83;3.20;;;;;;;5.83;81.32;98697.22;4956839;28;102819;-70
2022/12/07 11:29:29;;;;;;;3.30;3.00;;;;;;;6.04;81.51;98706.56;4963166;28;104050;-70
2022/12/07 11:32:08;;;;;;;5.20;3.80;;;;;;;5.64;82.73;98697.31;4957460;28;103245;-70
2022/12/07 11:34:44;;;;;;;5.40;3.93;;;;;;;5.80;81.54;98697.38;4966250;28;102697;-70
2022/12/07 11:37:17;;;;;;;5.47;4.60;;;;;;;5.65;82.73;98695.56;4962473;28;103987;-70
2022/12/07 11:39:52;;;;;;;7.00;5.10;;;;;;;5.55;83.48;98689.97;4948392;28;104045;-69
2022/12/07 11:42:26;;;;;;;5.57;3.93;;;;;;;5.83;82.14;98690.19;4955878;28;104337;-71
2022/12/07 11:45:01;;;;;;;4.50;4.07;;;;;;;6.01;81.02;98691.00;4959965;28;103274;-70
2022/12/07 11:47:35;;;;;;;4.73;4.17;;;;;;;6.05;80.22;98684.69;4966144;28;103161;-67
2022/12/07 11:50:15;;;;;;;7.60;5.23;;;;;;;6.00;81.14;98685.84;4952704;28;104247;-68
2022/12/07 11:52:49;;;;;;;9.53;6.30;;;;;;;5.87;81.16;98682.22;4951765;28;103142;-69
2022/12/07 11:55:23;;;;;;;6.23;4.97;;;;;;;6.10;80.78;98680.03;4954094;28;102809;-69
2022/12/07 11:57:57;;;;;;;8.33;6.10;;;;;;;6.37;80.00;98681.13;4962269;28;102620;-68
2022/12/07 12:00:26;;;;;;;8.40;6.90;;;;;;;5.93;80.78;98682.69;4972164;28;103946;-70